Time;durP1;ratioP1;P1;durP2;ratioP2;P2;SDS_P1;SDS_P2;PMS_P1;PMS_P2;Temp;Humidity;BMP_temperature;BMP_pressure;BME280_temperature;BME280_humidity;BME280_pressure;Samples;Min_cycle;Max_cycle;Signal;HPM_P1;HPM_P2
2023/06/09 00:02:03;;;;;;;;;;;21.00;77.30;;;;;;4987042;28;20343;-69
2023/06/09 00:04:32;;;;;;;;;;;21.00;77.50;;;;;;4988074;28;19918;-69
2023/06/09 00:06:58;;;;;;;;;;;20.90;77.40;;;;;;4986774;28;19922;-69
2023/06/09 00:09:24;;;;;;;;;;;20.90;77.40;;;;;;4967498;28;19960;-69
2023/06/09 00:11:49;;;;;;;;;;;20.90;77.40;;;;;;4967674;28;19914;-69
2023/06/09 00:14:15;;;;;;;;;;;20.90;77.40;;;;;;4966112;28;19918;-69
2023/06/09 00:16:46;;;;;;;;;;;20.80;77.60;;;;;;4967329;28;19917;-68
2023/06/09 00:19:12;;;;;;;;;;;20.80;77.60;;;;;;4967195;28;19920;-69
2023/06/09 00:21:38;;;;;;;;;;;20.80;77.60;;;;;;4967789;28;19918;-69
2023/06/09 00:24:04;;;;;;;;;;;20.80;77.80;;;;;;4967362;28;19948;-69
2023/06/09 00:26:30;;;;;;;;;;;20.70;77.90;;;;;;4967184;28;19921;-69
2023/06/09 00:28:56;;;;;;;;;;;20.70;77.70;;;;;;4967076;28;20367;-69
2023/06/09 00:31:21;;;;;;;;;;;20.60;78.00;;;;;;4978385;28;19916;-69
2023/06/09 00:33:47;;;;;;;;;;;20.60;77.70;;;;;;4986499;28;20418;-69
2023/06/09 00:36:12;;;;;;;;;;;20.60;77.90;;;;;;4986625;28;19993;-69
2023/06/09 00:38:38;;;;;;;;;;;20.50;78.50;;;;;;4974618;28;19918;-69
2023/06/09 00:41:03;;;;;;;;;;;20.60;78.20;;;;;;4967377;28;19914;-69
2023/06/09 00:43:29;;;;;;;;;;;20.50;77.90;;;;;;4965821;28;20027;-68
2023/06/09 00:45:54;;;;;;;;;;;20.50;77.80;;;;;;4966906;28;19956;-68
2023/06/09 00:48:20;;;;;;;;;;;20.50;78.10;;;;;;4967308;28;19914;-69
2023/06/09 00:50:47;;;;;;;;;;;20.40;78.10;;;;;;4967082;28;19956;-69
2023/06/09 00:53:13;;;;;;;;;;;20.40;78.10;;;;;;4967149;28;19922;-69
2023/06/09 00:55:39;;;;;;;;;;;20.40;78.10;;;;;;4966630;28;19972;-69
2023/06/09 00:58:06;;;;;;;;;;;20.40;78.20;;;;;;4984619;28;20422;-69
2023/06/09 01:00:33;;;;;;;;;;;20.30;78.10;;;;;;4986229;28;20001;-69
2023/06/09 01:03:02;;;;;;;;;;;20.30;78.50;;;;;;4986264;28;19914;-68
2023/06/09 01:05:32;;;;;;;;;;;20.30;78.50;;;;;;4985979;28;19967;-68
2023/06/09 01:08:04;;;;;;;;;;;20.20;78.50;;;;;;4979875;28;20347;-68
2023/06/09 01:10:48;;;;;;;;;;;20.20;78.50;;;;;;4966922;28;20013;-69
2023/06/09 01:13:32;;;;;;;;;;;20.20;78.60;;;;;;4966916;28;19945;-68
2023/06/09 01:16:01;;;;;;;;;;;20.10;78.60;;;;;;4966605;28;19921;-69
2023/06/09 01:18:30;;;;;;;;;;;20.10;78.90;;;;;;5069236;28;19920;-69
2023/06/09 01:20:58;;;;;;;;;;;20.10;78.90;;;;;;5088796;28;19934;-69
2023/06/09 01:23:35;;;;;;;;;;;20.10;78.90;;;;;;5088279;28;19947;-69
2023/06/09 01:26:01;;;;;;;;;;;20.00;79.00;;;;;;5088285;28;19960;-69
2023/06/09 01:28:28;;;;;;;;;;;20.00;79.10;;;;;;5089742;28;20003;-69
2023/06/09 01:30:54;;;;;;;;;;;20.00;79.10;;;;;;5048775;28;19921;-69
2023/06/09 01:33:21;;;;;;;;;;;20.00;79.30;;;;;;4983520;28;19910;-69
2023/06/09 01:35:47;;;;;;;;;;;20.00;79.10;;;;;;4987538;28;19910;-69
2023/06/09 01:38:13;;;;;;;;;;;19.90;79.10;;;;;;4980907;28;19985;-69
2023/06/09 01:40:38;;;;;;;;;;;19.90;79.20;;;;;;4969918;28;19921;-69
2023/06/09 01:43:05;;;;;;;;;;;19.90;79.30;;;;;;4969814;28;19910;-69
2023/06/09 01:45:30;;;;;;;;;;;19.80;79.30;;;;;;4969342;28;20544;-69
2023/06/09 01:47:56;;;;;;;;;;;19.80;79.50;;;;;;4968270;28;19910;-69
2023/06/09 01:50:30;;;;;;;;;;;19.80;79.60;;;;;;4993440;28;20293;-69
2023/06/09 01:53:02;;;;;;;;;;;19.80;79.60;;;;;;4989073;28;19920;-69
2023/06/09 01:55:29;;;;;;;;;;;19.70;79.60;;;;;;4985378;28;19914;-69
2023/06/09 01:58:06;;;;;;;;;;;19.70;79.60;;;;;;4985720;28;19963;-69
2023/06/09 02:00:32;;;;;;;;;;;19.70;79.60;;;;;;4990423;28;19918;-69
2023/06/09 02:02:59;;;;;;;;;;;19.60;79.70;;;;;;5034916;28;20035;-69
2023/06/09 02:05:25;;;;;;;;;;;19.60;79.90;;;;;;5047233;28;19920;-68
2023/06/09 02:07:53;;;;;;;;;;;19.60;79.80;;;;;;5019619;28;19910;-69
2023/06/09 02:10:22;;;;;;;;;;;19.60;79.90;;;;;;4988897;28;19914;-69
2023/06/09 02:12:47;;;;;;;;;;;19.60;80.00;;;;;;4988685;28;19914;-69
2023/06/09 02:15:13;;;;;;;;;;;19.50;80.00;;;;;;4988571;28;19988;-69
2023/06/09 02:17:39;;;;;;;;;;;19.50;79.80;;;;;;4988618;28;20004;-69
2023/06/09 02:20:08;;;;;;;;;;;19.50;80.10;;;;;;4988495;28;19918;-68
2023/06/09 02:22:34;;;;;;;;;;;19.40;80.20;;;;;;4988651;28;20447;-69
2023/06/09 02:24:59;;;;;;;;;;;19.40;80.30;;;;;;4988596;28;19913;-69
2023/06/09 02:27:25;;;;;;;;;;;19.40;80.30;;;;;;4988355;28;20008;-69
2023/06/09 02:29:50;;;;;;;;;;;19.40;80.30;;;;;;4988232;28;19917;-69
2023/06/09 02:32:16;;;;;;;;;;;19.40;80.30;;;;;;4988261;28;20393;-69
2023/06/09 02:34:41;;;;;;;;;;;19.30;80.40;;;;;;4988254;28;19914;-69
2023/06/09 02:37:07;;;;;;;;;;;19.30;80.50;;;;;;4988311;28;19921;-69
2023/06/09 02:39:34;;;;;;;;;;;19.30;80.50;;;;;;4967929;28;19918;-68
2023/06/09 02:41:59;;;;;;;;;;;19.30;80.60;;;;;;4968936;28;19918;-69
2023/06/09 02:44:25;;;;;;;;;;;19.30;80.70;;;;;;4967536;28;19918;-68
2023/06/09 02:46:51;;;;;;;;;;;19.30;80.70;;;;;;4967275;28;19921;-69
2023/06/09 02:49:16;;;;;;;;;;;19.20;80.70;;;;;;4968608;28;20331;-69
2023/06/09 02:51:42;;;;;;;;;;;19.20;80.70;;;;;;4968746;28;19937;-69
2023/06/09 02:54:08;;;;;;;;;;;19.20;80.50;;;;;;4968721;28;19963;-69
2023/06/09 02:56:33;;;;;;;;;;;19.10;80.70;;;;;;4973866;28;19921;-68
2023/06/09 02:58:59;;;;;;;;;;;19.10;80.90;;;;;;4987370;28;19968;-68
2023/06/09 03:01:27;;;;;;;;;;;19.10;80.90;;;;;;4986509;28;19914;-69
2023/06/09 03:03:52;;;;;;;;;;;19.10;81.00;;;;;;4987553;28;19910;-69
2023/06/09 03:06:19;;;;;;;;;;;19.10;81.20;;;;;;4987680;28;19914;-68
2023/06/09 03:08:45;;;;;;;;;;;19.00;81.30;;;;;;4974789;28;20248;-69
2023/06/09 03:11:10;;;;;;;;;;;19.00;81.10;;;;;;5012298;28;19973;-69
2023/06/09 03:13:36;;;;;;;;;;;19.00;81.10;;;;;;5088510;28;19912;-69
2023/06/09 03:16:05;;;;;;;;;;;19.00;81.20;;;;;;5089716;28;19951;-69
2023/06/09 03:18:30;;;;;;;;;;;19.00;81.20;;;;;;5089332;28;19922;-69
2023/06/09 03:21:01;;;;;;;;;;;19.00;81.20;;;;;;5089966;28;20349;-69
2023/06/09 03:23:27;;;;;;;;;;;18.90;81.30;;;;;;5089654;28;19916;-68
2023/06/09 03:25:52;;;;;;;;;;;18.90;81.50;;;;;;5089350;28;19931;-69
2023/06/09 03:28:18;;;;;;;;;;;18.90;82.00;;;;;;5089696;28;20477;-69
2023/06/09 03:30:43;;;;;;;;;;;18.80;81.60;;;;;;5055794;28;19964;-69
2023/06/09 03:33:11;;;;;;;;;;;18.90;81.80;;;;;;4987339;28;19910;-68
2023/06/09 03:35:36;;;;;;;;;;;18.80;81.40;;;;;;4986819;28;19967;-68
2023/06/09 03:38:02;;;;;;;;;;;18.80;81.60;;;;;;4980317;28;20338;-68
2023/06/09 03:40:27;;;;;;;;;;;18.80;81.70;;;;;;4967842;28;19918;-68
2023/06/09 03:42:53;;;;;;;;;;;18.80;81.50;;;;;;4968119;28;20707;-68
2023/06/09 03:45:18;;;;;;;;;;;18.80;82.00;;;;;;4967635;28;19913;-69
2023/06/09 03:47:44;;;;;;;;;;;18.70;82.20;;;;;;4968007;28;19910;-68
2023/06/09 03:50:10;;;;;;;;;;;18.70;82.30;;;;;;4987725;28;19918;-69
2023/06/09 03:52:35;;;;;;;;;;;18.70;81.90;;;;;;4986848;28;19913;-68
2023/06/09 03:55:01;;;;;;;;;;;18.70;81.80;;;;;;4990534;28;19956;-69
2023/06/09 03:57:26;;;;;;;;;;;18.70;82.10;;;;;;4980370;28;19910;-69
2023/06/09 03:59:52;;;;;;;;;;;18.60;81.90;;;;;;4985417;28;19914;-69
2023/06/09 04:02:17;;;;;;;;;;;18.70;82.00;;;;;;4987045;28;19953;-69
2023/06/09 04:04:43;;;;;;;;;;;18.60;82.20;;;;;;4985553;28;19921;-69
2023/06/09 04:07:10;;;;;;;;;;;18.60;82.30;;;;;;4986825;28;19914;-69
2023/06/09 04:09:35;;;;;;;;;;;18.60;82.50;;;;;;4967743;28;19917;-68
2023/06/09 04:12:01;;;;;;;;;;;18.60;82.50;;;;;;4967576;28;20501;-68
2023/06/09 04:14:27;;;;;;;;;;;18.60;82.30;;;;;;4967377;28;19914;-68
2023/06/09 04:16:52;;;;;;;;;;;18.50;82.10;;;;;;4965957;28;20291;-69
2023/06/09 04:19:18;;;;;;;;;;;18.50;82.30;;;;;;4967391;28;20421;-68
2023/06/09 04:21:43;;;;;;;;;;;18.50;82.10;;;;;;4967628;28;20593;-69
2023/06/09 04:24:09;;;;;;;;;;;18.50;82.30;;;;;;4967219;28;19923;-68
2023/06/09 04:26:38;;;;;;;;;;;18.50;82.40;;;;;;4967230;28;19921;-68
2023/06/09 04:29:04;;;;;;;;;;;18.50;82.40;;;;;;4967169;28;19946;-68
2023/06/09 04:31:33;;;;;;;;;;;18.50;82.40;;;;;;4979462;28;19964;-68
2023/06/09 04:34:12;;;;;;;;;;;18.50;82.30;;;;;;4985090;28;20418;-68
2023/06/09 04:36:38;;;;;;;;;;;18.50;82.60;;;;;;4986602;28;19914;-69
2023/06/09 04:39:05;;;;;;;;;;;18.40;82.30;;;;;;4971319;28;20524;-69
2023/06/09 04:41:31;;;;;;;;;;;18.40;82.10;;;;;;4967256;28;19968;-68
2023/06/09 04:44:03;;;;;;;;;;;18.40;82.20;;;;;;4967097;28;19914;-68
2023/06/09 04:46:31;;;;;;;;;;;18.50;82.20;;;;;;4967081;28;19921;-69
2023/06/09 04:48:57;;;;;;;;;;;18.40;83.00;;;;;;4966628;28;20004;-68
2023/06/09 04:51:24;;;;;;;;;;;18.40;82.30;;;;;;4966268;28;19917;-68
2023/06/09 04:53:49;;;;;;;;;;;18.40;82.40;;;;;;4966059;28;19914;-69
2023/06/09 04:56:16;;;;;;;;;;;18.40;82.50;;;;;;4973773;28;19918;-69
2023/06/09 04:58:42;;;;;;;;;;;18.40;82.70;;;;;;4985793;28;19918;-68
2023/06/09 05:01:07;;;;;;;;;;;18.40;82.70;;;;;;4986610;28;19910;-69
2023/06/09 05:03:33;;;;;;;;;;;18.40;82.70;;;;;;4987352;28;20421;-69
2023/06/09 05:05:59;;;;;;;;;;;18.40;82.50;;;;;;4989500;28;19913;-68
2023/06/09 05:08:25;;;;;;;;;;;18.40;82.80;;;;;;4993928;28;20231;-68
2023/06/09 05:10:52;;;;;;;;;;;18.40;82.50;;;;;;5092605;28;20443;-68
2023/06/09 05:13:18;;;;;;;;;;;18.40;82.50;;;;;;5092411;28;20405;-69
2023/06/09 05:15:43;;;;;;;;;;;18.40;82.40;;;;;;5092133;28;20023;-69
2023/06/09 05:18:09;;;;;;;;;;;18.40;82.80;;;;;;5092512;28;19912;-69
2023/06/09 05:20:35;;;;;;;;;;;18.40;82.70;;;;;;5090708;28;19994;-69
2023/06/09 05:23:02;;;;;;;;;;;18.40;83.20;;;;;;5092349;28;19920;-68
2023/06/09 05:25:27;;;;;;;;;;;18.40;82.70;;;;;;5090467;28;20357;-68
2023/06/09 05:27:53;;;;;;;;;;;18.40;82.50;;;;;;5092122;28;19912;-69
2023/06/09 05:30:18;;;;;;;;;;;18.40;82.50;;;;;;5075994;28;19914;-68
2023/06/09 05:32:44;;;;;;;;;;;18.40;82.60;;;;;;4970728;28;19914;-68
2023/06/09 05:35:11;;;;;;;;;;;18.40;82.70;;;;;;4969233;28;20159;-69
2023/06/09 05:37:49;;;;;;;;;;;18.40;82.70;;;;;;4973487;28;19910;-69
2023/06/09 05:40:15;;;;;;;;;;;18.40;82.70;;;;;;4989091;28;19918;-68
2023/06/09 05:42:41;;;;;;;;;;;18.40;82.80;;;;;;4989812;28;19926;-69
2023/06/09 05:45:06;;;;;;;;;;;18.40;82.80;;;;;;5002825;28;20366;-69
2023/06/09 05:47:32;;;;;;;;;;;18.40;82.80;;;;;;4988861;28;19921;-69
2023/06/09 05:49:57;;;;;;;;;;;18.40;82.90;;;;;;4998906;28;19913;-68
2023/06/09 05:52:24;;;;;;;;;;;18.40;82.80;;;;;;5008693;28;19921;-68
2023/06/09 05:54:49;;;;;;;;;;;18.40;82.80;;;;;;5008635;28;20358;-68
2023/06/09 05:57:15;;;;;;;;;;;18.40;82.90;;;;;;4989783;28;19918;-68
2023/06/09 05:59:42;;;;;;;;;;;18.40;82.70;;;;;;4988612;28;19967;-69
2023/06/09 06:02:08;;;;;;;;;;;18.40;82.70;;;;;;4988912;28;19914;-69
2023/06/09 06:04:33;;;;;;;;;;;18.40;82.90;;;;;;4988906;28;19921;-68
2023/06/09 06:06:59;;;;;;;;;;;18.50;82.90;;;;;;4988724;28;19997;-68
2023/06/09 06:09:24;;;;;;;;;;;18.40;82.70;;;;;;4969426;28;19914;-68
2023/06/09 06:11:50;;;;;;;;;;;18.50;82.80;;;;;;4969480;28;19960;-69
2023/06/09 06:14:15;;;;;;;;;;;18.50;82.70;;;;;;4968898;28;19916;-68
2023/06/09 06:16:41;;;;;;;;;;;18.50;82.60;;;;;;4969254;28;19914;-68
2023/06/09 06:19:06;;;;;;;;;;;18.50;82.70;;;;;;4968937;28;20248;-69
2023/06/09 06:21:32;;;;;;;;;;;18.50;82.80;;;;;;4969488;28;20008;-68
2023/06/09 06:23:57;;;;;;;;;;;18.50;82.60;;;;;;4967749;28;20687;-68
2023/06/09 06:26:23;;;;;;;;;;;18.50;82.70;;;;;;4969001;28;19960;-68
2023/06/09 06:28:48;;;;;;;;;;;18.50;82.60;;;;;;4968996;28;19914;-68
2023/06/09 06:31:16;;;;;;;;;;;18.60;82.50;;;;;;4979208;28;20674;-68
2023/06/09 06:33:43;;;;;;;;;;;18.60;82.40;;;;;;4988354;28;20355;-68
2023/06/09 06:36:08;;;;;;;;;;;18.60;82.50;;;;;;4988452;28;19957;-68
2023/06/09 06:38:34;;;;;;;;;;;18.60;82.40;;;;;;4977243;28;20347;-68
2023/06/09 06:40:59;;;;;;;;;;;18.60;82.40;;;;;;4969129;28;20020;-68
2023/06/09 06:43:25;;;;;;;;;;;18.60;82.20;;;;;;4968894;28;19921;-68
2023/06/09 06:45:50;;;;;;;;;;;18.60;82.40;;;;;;4968542;28;20456;-68
2023/06/09 06:48:16;;;;;;;;;;;18.60;82.20;;;;;;4968885;28;19910;-69
2023/06/09 06:50:41;;;;;;;;;;;18.60;82.20;;;;;;4968644;28;19956;-68
2023/06/09 06:53:08;;;;;;;;;;;18.70;82.20;;;;;;4968971;28;19968;-68
2023/06/09 06:55:35;;;;;;;;;;;18.70;82.20;;;;;;4972314;28;19921;-68
2023/06/09 06:58:01;;;;;;;;;;;18.70;82.00;;;;;;4987582;28;19921;-68
2023/06/09 07:00:27;;;;;;;;;;;18.70;82.10;;;;;;4987811;28;19917;-68
2023/06/09 07:02:53;;;;;;;;;;;18.70;82.00;;;;;;4986561;28;19910;-68
2023/06/09 07:05:19;;;;;;;;;;;18.70;82.00;;;;;;4987599;28;20362;-68
2023/06/09 07:07:45;;;;;;;;;;;18.70;82.00;;;;;;5032799;28;20395;-68
2023/06/09 07:10:11;;;;;;;;;;;18.70;81.70;;;;;;4986688;28;19910;-68
2023/06/09 07:12:37;;;;;;;;;;;18.80;81.80;;;;;;4988031;28;20569;-68
2023/06/09 07:15:03;;;;;;;;;;;18.80;81.70;;;;;;4987677;28;20363;-68
2023/06/09 07:17:28;;;;;;;;;;;18.70;81.70;;;;;;4987634;28;19945;-68
2023/06/09 07:19:54;;;;;;;;;;;18.80;81.60;;;;;;4986207;28;19922;-68
2023/06/09 07:22:20;;;;;;;;;;;18.80;81.50;;;;;;4987952;28;20426;-68
2023/06/09 07:24:46;;;;;;;;;;;18.80;81.50;;;;;;4987801;28;19918;-68
2023/06/09 07:27:11;;;;;;;;;;;18.80;81.40;;;;;;4986857;28;20397;-68
2023/06/09 07:29:37;;;;;;;;;;;18.80;81.40;;;;;;4986233;28;19910;-69
2023/06/09 07:32:03;;;;;;;;;;;18.90;81.30;;;;;;4987419;28;19910;-68
2023/06/09 07:34:29;;;;;;;;;;;18.90;81.40;;;;;;4987290;28;19918;-68
2023/06/09 07:36:55;;;;;;;;;;;18.90;81.00;;;;;;5001755;28;20362;-68
2023/06/09 07:39:20;;;;;;;;;;;18.90;81.00;;;;;;4987312;28;19970;-68
2023/06/09 07:41:46;;;;;;;;;;;19.00;81.20;;;;;;4986315;28;20005;-68
2023/06/09 07:44:12;;;;;;;;;;;19.00;81.20;;;;;;4998324;28;19913;-68
2023/06/09 07:46:37;;;;;;;;;;;19.00;81.20;;;;;;5006754;28;19991;-68
2023/06/09 07:49:03;;;;;;;;;;;19.00;80.90;;;;;;5006755;28;19913;-69
2023/06/09 07:51:29;;;;;;;;;;;19.10;80.90;;;;;;5006819;28;20012;-68
2023/06/09 07:53:55;;;;;;;;;;;19.10;80.70;;;;;;5006668;28;19917;-68
2023/06/09 07:56:21;;;;;;;;;;;19.10;80.50;;;;;;4989706;28;19917;-68
2023/06/09 07:58:46;;;;;;;;;;;19.10;80.50;;;;;;4986624;28;19921;-69
2023/06/09 08:01:12;;;;;;;;;;;19.20;80.40;;;;;;4987162;28;20359;-68
2023/06/09 08:03:38;;;;;;;;;;;19.20;80.30;;;;;;4986936;28;19914;-69
2023/06/09 08:06:04;;;;;;;;;;;19.20;80.20;;;;;;4986875;28;20461;-68
2023/06/09 08:08:31;;;;;;;;;;;19.30;80.20;;;;;;4976168;28;19914;-68
2023/06/09 08:10:57;;;;;;;;;;;19.30;80.20;;;;;;4967629;28;20515;-68
2023/06/09 08:13:23;;;;;;;;;;;19.30;80.00;;;;;;4967638;28;20290;-69
2023/06/09 08:15:48;;;;;;;;;;;19.30;80.20;;;;;;4967220;28;19914;-68
2023/06/09 08:18:14;;;;;;;;;;;19.30;80.10;;;;;;4967515;28;20403;-68
2023/06/09 08:20:40;;;;;;;;;;;19.30;79.90;;;;;;4967272;28;19918;-68
2023/06/09 08:23:07;;;;;;;;;;;19.30;79.70;;;;;;4967235;28;20005;-68
2023/06/09 08:25:34;;;;;;;;;;;19.40;79.60;;;;;;4965876;28;19986;-68
2023/06/09 08:28:00;;;;;;;;;;;19.50;79.90;;;;;;4967378;28;20450;-68
2023/06/09 08:30:25;;;;;;;;;;;19.50;79.80;;;;;;4970736;28;20008;-68
2023/06/09 08:32:51;;;;;;;;;;;19.50;79.70;;;;;;4986341;28;19910;-69
2023/06/09 08:35:16;;;;;;;;;;;19.60;79.60;;;;;;4986270;28;19962;-68
2023/06/09 08:37:42;;;;;;;;;;;19.60;79.40;;;;;;4983771;28;19987;-68
2023/06/09 08:40:08;;;;;;;;;;;19.60;79.60;;;;;;4970432;28;19925;-68
2023/06/09 08:42:34;;;;;;;;;;;19.60;79.40;;;;;;4970857;28;20423;-68
2023/06/09 08:45:01;;;;;;;;;;;19.70;79.50;;;;;;4969210;28;20514;-68
2023/06/09 08:47:27;;;;;;;;;;;19.70;79.30;;;;;;4970248;28;19917;-68
2023/06/09 08:49:57;;;;;;;;;;;19.70;79.40;;;;;;4970373;28;19910;-68
2023/06/09 08:52:27;;;;;;;;;;;19.80;79.40;;;;;;4970589;28;20480;-68
2023/06/09 08:54:54;;;;;;;;;;;19.80;79.10;;;;;;4969157;28;19914;-68
2023/06/09 08:57:20;;;;;;;;;;;19.90;79.00;;;;;;4981786;28;19914;-69
2023/06/09 08:59:47;;;;;;;;;;;19.90;79.00;;;;;;4989573;28;20422;-68
2023/06/09 09:02:13;;;;;;;;;;;20.00;79.00;;;;;;4989770;28;20305;-68
2023/06/09 09:04:38;;;;;;;;;;;20.00;79.20;;;;;;4999921;28;19916;-68
2023/06/09 09:07:08;;;;;;;;;;;20.00;79.10;;;;;;5092264;28;19908;-68
2023/06/09 09:09:33;;;;;;;;;;;20.10;79.10;;;;;;4990364;28;20441;-68
2023/06/09 09:11:59;;;;;;;;;;;20.10;78.70;;;;;;4989510;28;20023;-68
2023/06/09 09:14:25;;;;;;;;;;;20.20;78.80;;;;;;4988167;28;20514;-68
2023/06/09 09:16:51;;;;;;;;;;;20.20;78.80;;;;;;4989476;28;19921;-68
2023/06/09 09:19:36;;;;;;;;;;;20.20;78.50;;;;;;4989374;28;19921;-68
2023/06/09 09:22:06;;;;;;;;;;;20.30;78.90;;;;;;4989018;28;19910;-68
2023/06/09 09:24:31;;;;;;;;;;;20.40;78.70;;;;;;4989540;28;20646;-69
2023/06/09 09:26:57;;;;;;;;;;;20.40;78.60;;;;;;4989121;28;19914;-68
2023/06/09 09:29:26;;;;;;;;;;;20.40;79.30;;;;;;4989211;28;19910;-68
2023/06/09 09:31:55;;;;;;;;;;;20.50;78.60;;;;;;4989148;28;20275;-68
2023/06/09 09:34:20;;;;;;;;;;;20.60;78.50;;;;;;5003655;28;19913;-68
2023/06/09 09:36:46;;;;;;;;;;;20.70;78.40;;;;;;4989096;28;19936;-68
2023/06/09 09:39:12;;;;;;;;;;;20.70;78.40;;;;;;4989141;28;19925;-68
2023/06/09 09:41:37;;;;;;;;;;;20.80;78.10;;;;;;4989187;28;19921;-68
2023/06/09 09:44:03;;;;;;;;;;;20.80;77.90;;;;;;4989071;28;19921;-68
2023/06/09 09:46:39;;;;;;;;;;;20.90;78.00;;;;;;4988955;28;20418;-68
2023/06/09 09:49:05;;;;;;;;;;;21.00;78.00;;;;;;4988550;28;20026;-68
2023/06/09 09:51:32;;;;;;;;;;;21.00;77.60;;;;;;4989234;28;20354;-68
2023/06/09 09:53:58;;;;;;;;;;;21.00;77.70;;;;;;5004636;28;20385;-68
2023/06/09 09:56:25;;;;;;;;;;;21.10;77.60;;;;;;4991052;28;19920;-68
2023/06/09 09:58:53;;;;;;;;;;;21.20;77.40;;;;;;4986997;28;20382;-68
2023/06/09 10:01:21;;;;;;;;;;;21.20;77.60;;;;;;4988959;28;20445;-68
2023/06/09 10:03:48;;;;;;;;;;;21.30;77.40;;;;;;4988692;28;19936;-68
2023/06/09 10:06:16;;;;;;;;;;;21.40;77.30;;;;;;4988752;28;19920;-68
2023/06/09 10:08:42;;;;;;;;;;;21.40;76.90;;;;;;4976471;28;19910;-68
2023/06/09 10:11:08;;;;;;;;;;;21.50;76.80;;;;;;4969593;28;19941;-68
2023/06/09 10:13:34;;;;;;;;;;;21.60;76.60;;;;;;4969114;28;20011;-68
2023/06/09 10:16:00;;;;;;;;;;;21.70;76.60;;;;;;4969273;28;19914;-68
2023/06/09 10:18:26;;;;;;;;;;;21.80;76.50;;;;;;4967870;28;19921;-68
2023/06/09 10:20:53;;;;;;;;;;;21.90;76.20;;;;;;4969149;28;19914;-68
2023/06/09 10:23:18;;;;;;;;;;;22.00;76.10;;;;;;4983950;28;19993;-68
2023/06/09 10:25:48;;;;;;;;;;;22.10;76.30;;;;;;4968997;28;20005;-68
2023/06/09 10:28:15;;;;;;;;;;;22.20;76.30;;;;;;4969208;28;20028;-68
2023/06/09 10:30:40;;;;;;;;;;;22.30;76.20;;;;;;4974289;28;19914;-68
2023/06/09 10:33:17;;;;;;;;;;;22.40;76.50;;;;;;4988427;28;19921;-68
2023/06/09 10:35:44;;;;;;;;;;;22.50;76.60;;;;;;4988086;28;19910;-68
2023/06/09 10:38:22;;;;;;;;;;;22.60;76.40;;;;;;4980443;28;19921;-68
2023/06/09 10:40:49;;;;;;;;;;;22.70;76.30;;;;;;4968776;28;19920;-68
2023/06/09 10:43:18;;;;;;;;;;;22.80;75.40;;;;;;4969000;28;19914;-68
2023/06/09 10:45:53;;;;;;;;;;;23.00;76.20;;;;;;4968397;28;19917;-68
2023/06/09 10:48:37;;;;;;;;;;;23.10;76.00;;;;;;4968794;28;19954;-68
2023/06/09 10:51:21;;;;;;;;;;;23.20;74.90;;;;;;4981786;28;20461;-68
2023/06/09 10:54:06;;;;;;;;;;;23.40;75.50;;;;;;4988116;28;20270;-68
2023/06/09 10:56:32;;;;;;;;;;;23.50;75.80;;;;;;4985575;28;19925;-68
2023/06/09 10:58:57;;;;;;;;;;;23.60;76.20;;;;;;4987208;28;19922;-68
2023/06/09 11:01:22;;;;;;;;;;;23.70;75.80;;;;;;4985488;28;20351;-68
2023/06/09 11:03:48;;;;;;;;;;;23.90;75.60;;;;;;4987637;28;20051;-68
2023/06/09 11:06:13;;;;;;;;;;;24.00;75.40;;;;;;4987867;28;19914;-68
2023/06/09 11:08:57;;;;;;;;;;;24.10;75.80;;;;;;4975959;28;20672;-68
2023/06/09 11:11:42;;;;;;;;;;;24.00;75.20;;;;;;4968528;28;19910;-68
2023/06/09 11:14:07;;;;;;;;;;;24.00;75.70;;;;;;4968270;28;19975;-68
2023/06/09 11:16:52;;;;;;;;;;;24.10;76.10;;;;;;5049738;28;19920;-68
2023/06/09 11:19:18;;;;;;;;;;;24.20;76.50;;;;;;5089524;28;19923;-68
2023/06/09 11:22:01;;;;;;;;;;;24.30;76.00;;;;;;5090575;28;19916;-68
2023/06/09 11:24:44;;;;;;;;;;;24.40;75.10;;;;;;5089899;28;19958;-68
2023/06/09 11:27:17;;;;;;;;;;;24.50;75.00;;;;;;5089740;28;19912;-68
2023/06/09 11:29:42;;;;;;;;;;;24.70;74.30;;;;;;5074469;28;20265;-68
2023/06/09 11:32:08;;;;;;;;;;;24.90;74.20;;;;;;4998262;28;19914;-68
2023/06/09 11:34:55;;;;;;;;;;;25.00;74.10;;;;;;4987370;28;19922;-68
2023/06/09 11:37:21;;;;;;;;;;;24.90;74.00;;;;;;4985875;28;19910;-68
2023/06/09 11:39:47;;;;;;;;;;;24.90;74.20;;;;;;4968146;28;19914;-68
2023/06/09 11:42:14;;;;;;;;;;;24.90;74.60;;;;;;4968009;28;19910;-68
2023/06/09 11:44:40;;;;;;;;;;;24.90;74.80;;;;;;4972079;28;20531;-68
2023/06/09 11:47:22;;;;;;;;;;;25.00;75.00;;;;;;5004385;28;19914;-68
2023/06/09 11:49:57;;;;;;;;;;;25.10;74.80;;;;;;5006772;28;19936;-68
2023/06/09 11:52:22;;;;;;;;;;;25.20;74.80;;;;;;5006814;28;20392;-68
2023/06/09 11:54:48;;;;;;;;;;;25.30;74.20;;;;;;5006921;28;19960;-68
2023/06/09 11:57:15;;;;;;;;;;;25.30;74.00;;;;;;4982305;28;19913;-68
2023/06/09 11:59:41;;;;;;;;;;;25.30;74.10;;;;;;4985455;28;19922;-68
2023/06/09 12:02:07;;;;;;;;;;;25.20;74.40;;;;;;4993027;28;19921;-68
2023/06/09 12:04:32;;;;;;;;;;;25.20;74.80;;;;;;5018226;28;19953;-69
2023/06/09 12:06:58;;;;;;;;;;;25.20;75.10;;;;;;4986903;28;19952;-68
2023/06/09 12:09:24;;;;;;;;;;;25.10;75.00;;;;;;4969091;28;20000;-68
2023/06/09 12:11:52;;;;;;;;;;;25.10;75.00;;;;;;4967547;28;19914;-68
2023/06/09 12:14:18;;;;;;;;;;;25.20;75.00;;;;;;4967444;28;19910;-68
2023/06/09 12:16:44;;;;;;;;;;;25.20;74.90;;;;;;4967302;28;20355;-68
2023/06/09 12:19:09;;;;;;;;;;;25.20;74.60;;;;;;4967191;28;19925;-68
2023/06/09 12:21:35;;;;;;;;;;;25.20;74.90;;;;;;4967547;28;19921;-68
2023/06/09 12:24:00;;;;;;;;;;;25.10;75.00;;;;;;5000916;28;19925;-68
2023/06/09 12:26:26;;;;;;;;;;;25.10;75.00;;;;;;5005471;28;19910;-68
2023/06/09 12:28:54;;;;;;;;;;;25.10;75.00;;;;;;5005905;28;19953;-68
2023/06/09 12:31:20;;;;;;;;;;;25.20;74.70;;;;;;4994800;28;19918;-69
2023/06/09 12:33:47;;;;;;;;;;;25.20;74.80;;;;;;4986651;28;20348;-68
2023/06/09 12:36:12;;;;;;;;;;;25.20;74.70;;;;;;4986557;28;19936;-68
2023/06/09 12:38:39;;;;;;;;;;;25.10;74.60;;;;;;4985237;28;20431;-68
2023/06/09 12:41:04;;;;;;;;;;;25.10;74.80;;;;;;4986855;28;19914;-68
2023/06/09 12:43:42;;;;;;;;;;;25.10;74.90;;;;;;4985297;28;19997;-68
2023/06/09 12:46:07;;;;;;;;;;;25.00;74.90;;;;;;4986417;28;19910;-69
2023/06/09 12:48:33;;;;;;;;;;;25.00;75.00;;;;;;4986370;28;19914;-69
2023/06/09 12:50:59;;;;;;;;;;;25.00;75.10;;;;;;4986526;28;19914;-68
2023/06/09 12:53:24;;;;;;;;;;;25.10;75.10;;;;;;4986447;28;19921;-68
2023/06/09 12:55:50;;;;;;;;;;;25.20;74.90;;;;;;4979747;28;19918;-68
2023/06/09 12:58:15;;;;;;;;;;;25.30;74.60;;;;;;4986147;28;20402;-68
2023/06/09 13:00:41;;;;;;;;;;;25.40;74.30;;;;;;4986294;28;19921;-68
2023/06/09 13:03:07;;;;;;;;;;;25.60;74.20;;;;;;4985054;28;20024;-68
2023/06/09 13:05:33;;;;;;;;;;;25.50;73.90;;;;;;4985919;28;19940;-69
2023/06/09 13:08:03;;;;;;;;;;;25.60;74.00;;;;;;4993589;28;19918;-68
2023/06/09 13:10:28;;;;;;;;;;;25.70;73.60;;;;;;4986404;28;19936;-68
2023/06/09 13:12:54;;;;;;;;;;;25.80;73.50;;;;;;4984847;28;19967;-68
2023/06/09 13:15:24;;;;;;;;;;;26.00;73.40;;;;;;4985516;28;20344;-68
2023/06/09 13:17:50;;;;;;;;;;;26.00;73.40;;;;;;4984352;28;20313;-68
2023/06/09 13:20:16;;;;;;;;;;;26.00;73.20;;;;;;5000131;28;19967;-68
2023/06/09 13:22:41;;;;;;;;;;;26.00;73.20;;;;;;4985117;28;19926;-68
2023/06/09 13:25:07;;;;;;;;;;;26.00;73.30;;;;;;4988293;28;19914;-68
2023/06/09 13:27:33;;;;;;;;;;;26.00;73.20;;;;;;4988033;28;20002;-68
2023/06/09 13:29:59;;;;;;;;;;;26.10;73.20;;;;;;4989288;28;19918;-68
2023/06/09 13:32:24;;;;;;;;;;;26.20;72.30;;;;;;4970162;28;19914;-68
2023/06/09 13:34:50;;;;;;;;;;;26.40;72.40;;;;;;4969801;28;20021;-68
2023/06/09 13:37:16;;;;;;;;;;;26.40;72.30;;;;;;4980720;28;20016;-68
2023/06/09 13:39:41;;;;;;;;;;;26.50;71.90;;;;;;5006661;28;19952;-68
2023/06/09 13:42:07;;;;;;;;;;;26.60;72.10;;;;;;5008751;28;19952;-68
2023/06/09 13:44:32;;;;;;;;;;;26.70;71.80;;;;;;5008646;28;20000;-68
2023/06/09 13:46:58;;;;;;;;;;;26.80;72.00;;;;;;5008617;28;19921;-68
2023/06/09 13:49:23;;;;;;;;;;;26.80;72.10;;;;;;5008598;28;19974;-68
2023/06/09 13:51:49;;;;;;;;;;;26.80;72.80;;;;;;5007511;28;19921;-68
2023/06/09 13:54:15;;;;;;;;;;;26.70;72.40;;;;;;5008487;28;19913;-68
2023/06/09 13:56:40;;;;;;;;;;;26.70;72.40;;;;;;4993597;28;19917;-68
2023/06/09 13:59:06;;;;;;;;;;;26.70;72.50;;;;;;4988295;28;19925;-68
2023/06/09 14:01:33;;;;;;;;;;;26.70;72.70;;;;;;4989119;28;19921;-68
2023/06/09 14:03:59;;;;;;;;;;;26.70;72.60;;;;;;4988765;28;19956;-68
2023/06/09 14:06:25;;;;;;;;;;;26.70;72.70;;;;;;4988618;28;19948;-69
2023/06/09 14:08:51;;;;;;;;;;;26.60;72.70;;;;;;4975249;28;19958;-68
2023/06/09 14:11:18;;;;;;;;;;;26.60;72.70;;;;;;4969513;28;19914;-68
2023/06/09 14:13:43;;;;;;;;;;;26.60;72.80;;;;;;4969181;28;19914;-68
2023/06/09 14:16:09;;;;;;;;;;;26.70;72.60;;;;;;4969275;28;19983;-68